sensor_id;sensor_type;location;lat;lon;timestamp;P1;durP1;ratioP1;P2;durP2;ratioP2
15486;SDS011;7845;53.698;10.078;2024-03-23T00:56:14;4.67;;;2.00;;
15486;SDS011;7845;53.698;10.078;2024-03-23T00:58:39;1.00;;;1.00;;
15486;SDS011;7845;53.698;10.078;2024-03-23T01:01:05;2.00;;;1.33;;
15486;SDS011;7845;53.698;10.078;2024-03-23T01:03:30;2.00;;;2.00;;
15486;SDS011;7845;53.698;10.078;2024-03-23T01:05:59;2.00;;;2.00;;
15486;SDS011;7845;53.698;10.078;2024-03-23T01:08:24;4.00;;;4.00;;
15486;SDS011;7845;53.698;10.078;2024-03-23T01:10:56;2.00;;;2.00;;
15486;SDS011;7845;53.698;10.078;2024-03-23T01:13:22;4.50;;;3.00;;
15486;SDS011;7845;53.698;10.078;2024-03-23T01:15:51;3.00;;;3.00;;
15486;SDS011;7845;53.698;10.078;2024-03-23T01:18:18;5.25;;;4.50;;
15486;SDS011;7845;53.698;10.078;2024-03-23T01:20:44;2.50;;;1.75;;
15486;SDS011;7845;53.698;10.078;2024-03-23T01:23:10;1.25;;;0.00;;
15486;SDS011;7845;53.698;10.078;2024-03-23T01:25:36;2.00;;;2.00;;
15486;SDS011;7845;53.698;10.078;2024-03-23T01:28:01;1.00;;;1.00;;
15486;SDS011;7845;53.698;10.078;2024-03-23T01:30:26;1.67;;;1.67;;
15486;SDS011;7845;53.698;10.078;2024-03-23T01:32:52;3.00;;;1.67;;
15486;SDS011;7845;53.698;10.078;2024-03-23T01:35:17;4.00;;;2.00;;
15486;SDS011;7845;53.698;10.078;2024-03-23T01:37:42;5.67;;;4.67;;
15486;SDS011;7845;53.698;10.078;2024-03-23T01:40:08;2.00;;;1.67;;
15486;SDS011;7845;53.698;10.078;2024-03-23T01:42:33;2.00;;;2.00;;
15486;SDS011;7845;53.698;10.078;2024-03-23T01:44:59;2.00;;;2.00;;
15486;SDS011;7845;53.698;10.078;2024-03-23T01:47:24;4.00;;;2.00;;
15486;SDS011;7845;53.698;10.078;2024-03-23T01:49:49;2.00;;;2.00;;
15486;SDS011;7845;53.698;10.078;2024-03-23T01:52:14;3.33;;;3.33;;
15486;SDS011;7845;53.698;10.078;2024-03-23T01:54:40;2.00;;;2.00;;
15486;SDS011;7845;53.698;10.078;2024-03-23T01:57:06;1.33;;;1.33;;
15486;SDS011;7845;53.698;10.078;2024-03-23T01:59:31;6.33;;;4.33;;
15486;SDS011;7845;53.698;10.078;2024-03-23T02:01:57;3.33;;;3.33;;
15486;SDS011;7845;53.698;10.078;2024-03-23T02:04:22;2.00;;;2.00;;
15486;SDS011;7845;53.698;10.078;2024-03-23T02:06:47;4.00;;;2.00;;
15486;SDS011;7845;53.698;10.078;2024-03-23T02:09:13;4.00;;;3.33;;
15486;SDS011;7845;53.698;10.078;2024-03-23T02:11:38;2.00;;;2.00;;
15486;SDS011;7845;53.698;10.078;2024-03-23T02:14:04;4.00;;;4.00;;
15486;SDS011;7845;53.698;10.078;2024-03-23T02:16:29;3.33;;;2.00;;
15486;SDS011;7845;53.698;10.078;2024-03-23T02:18:54;3.33;;;2.00;;
15486;SDS011;7845;53.698;10.078;2024-03-23T02:21:20;5.00;;;2.67;;
15486;SDS011;7845;53.698;10.078;2024-03-23T02:23:46;2.50;;;2.00;;
15486;SDS011;7845;53.698;10.078;2024-03-23T02:26:11;2.67;;;1.67;;
15486;SDS011;7845;53.698;10.078;2024-03-23T02:28:37;6.33;;;4.00;;
15486;SDS011;7845;53.698;10.078;2024-03-23T02:31:02;1.67;;;1.00;;
15486;SDS011;7845;53.698;10.078;2024-03-23T02:33:29;4.00;;;2.50;;
15486;SDS011;7845;53.698;10.078;2024-03-23T02:35:55;4.33;;;2.67;;
15486;SDS011;7845;53.698;10.078;2024-03-23T02:38:22;4.00;;;2.00;;
15486;SDS011;7845;53.698;10.078;2024-03-23T02:40:47;2.00;;;1.67;;
15486;SDS011;7845;53.698;10.078;2024-03-23T02:43:12;2.00;;;1.00;;
15486;SDS011;7845;53.698;10.078;2024-03-23T02:45:37;3.33;;;3.33;;
15486;SDS011;7845;53.698;10.078;2024-03-23T02:48:03;4.00;;;4.00;;
15486;SDS011;7845;53.698;10.078;2024-03-23T02:50:30;2.00;;;2.00;;
15486;SDS011;7845;53.698;10.078;2024-03-23T02:52:55;1.67;;;1.00;;
15486;SDS011;7845;53.698;10.078;2024-03-23T02:55:22;2.50;;;2.00;;
15486;SDS011;7845;53.698;10.078;2024-03-23T02:57:47;4.67;;;2.00;;
15486;SDS011;7845;53.698;10.078;2024-03-23T03:00:13;2.00;;;2.00;;
15486;SDS011;7845;53.698;10.078;2024-03-23T03:02:38;1.67;;;1.67;;
15486;SDS011;7845;53.698;10.078;2024-03-23T03:05:04;2.67;;;2.00;;
15486;SDS011;7845;53.698;10.078;2024-03-23T03:07:30;5.00;;;3.50;;
15486;SDS011;7845;53.698;10.078;2024-03-23T03:09:56;4.75;;;4.00;;
15486;SDS011;7845;53.698;10.078;2024-03-23T03:12:21;1.33;;;1.00;;
15486;SDS011;7845;53.698;10.078;2024-03-23T03:14:47;4.67;;;3.33;;
15486;SDS011;7845;53.698;10.078;2024-03-23T03:17:13;4.00;;;2.00;;
15486;SDS011;7845;53.698;10.078;2024-03-23T03:19:38;5.00;;;3.33;;
15486;SDS011;7845;53.698;10.078;2024-03-23T03:22:04;4.00;;;2.00;;
15486;SDS011;7845;53.698;10.078;2024-03-23T03:24:29;2.00;;;1.33;;
15486;SDS011;7845;53.698;10.078;2024-03-23T03:26:54;1.33;;;1.00;;
15486;SDS011;7845;53.698;10.078;2024-03-23T03:29:20;1.00;;;1.00;;
15486;SDS011;7845;53.698;10.078;2024-03-23T03:31:45;2.00;;;1.33;;
15486;SDS011;7845;53.698;10.078;2024-03-23T03:34:11;2.00;;;2.00;;
15486;SDS011;7845;53.698;10.078;2024-03-23T03:36:36;4.00;;;2.67;;
15486;SDS011;7845;53.698;10.078;2024-03-23T03:39:03;4.00;;;2.00;;
15486;SDS011;7845;53.698;10.078;2024-03-23T03:41:29;2.00;;;2.00;;
15486;SDS011;7845;53.698;10.078;2024-03-23T03:43:56;2.25;;;2.25;;
15486;SDS011;7845;53.698;10.078;2024-03-23T03:46:26;1.00;;;1.00;;
15486;SDS011;7845;53.698;10.078;2024-03-23T03:48:51;0.33;;;0.33;;
15486;SDS011;7845;53.698;10.078;2024-03-23T03:51:16;2.00;;;2.00;;
15486;SDS011;7845;53.698;10.078;2024-03-23T03:53:42;4.00;;;2.00;;
15486;SDS011;7845;53.698;10.078;2024-03-23T03:56:07;5.00;;;4.00;;
15486;SDS011;7845;53.698;10.078;2024-03-23T03:58:32;4.00;;;2.00;;
15486;SDS011;7845;53.698;10.078;2024-03-23T04:00:57;4.00;;;2.00;;
15486;SDS011;7845;53.698;10.078;2024-03-23T04:03:23;4.00;;;4.00;;
15486;SDS011;7845;53.698;10.078;2024-03-23T04:05:52;4.33;;;4.00;;
15486;SDS011;7845;53.698;10.078;2024-03-23T04:08:17;2.75;;;2.00;;
15486;SDS011;7845;53.698;10.078;2024-03-23T04:10:43;3.33;;;2.00;;
15486;SDS011;7845;53.698;10.078;2024-03-23T04:13:09;2.00;;;2.00;;
15486;SDS011;7845;53.698;10.078;2024-03-23T04:15:34;5.00;;;3.33;;
15486;SDS011;7845;53.698;10.078;2024-03-23T04:17:59;3.33;;;2.00;;
15486;SDS011;7845;53.698;10.078;2024-03-23T04:20:25;1.33;;;1.00;;
15486;SDS011;7845;53.698;10.078;2024-03-23T04:22:50;2.00;;;2.00;;
15486;SDS011;7845;53.698;10.078;2024-03-23T04:25:15;2.00;;;1.33;;
15486;SDS011;7845;53.698;10.078;2024-03-23T04:27:40;4.33;;;3.33;;
15486;SDS011;7845;53.698;10.078;2024-03-23T04:30:07;4.75;;;4.50;;
15486;SDS011;7845;53.698;10.078;2024-03-23T04:32:36;3.50;;;2.00;;
15486;SDS011;7845;53.698;10.078;2024-03-23T04:35:05;3.50;;;2.00;;
15486;SDS011;7845;53.698;10.078;2024-03-23T04:37:31;4.67;;;2.00;;
15486;SDS011;7845;53.698;10.078;2024-03-23T04:39:57;1.75;;;1.75;;
15486;SDS011;7845;53.698;10.078;2024-03-23T04:42:22;4.00;;;1.67;;
15486;SDS011;7845;53.698;10.078;2024-03-23T04:44:48;5.67;;;4.00;;
15486;SDS011;7845;53.698;10.078;2024-03-23T04:47:13;5.67;;;3.33;;
15486;SDS011;7845;53.698;10.078;2024-03-23T04:49:38;2.00;;;2.00;;
15486;SDS011;7845;53.698;10.078;2024-03-23T04:52:04;2.00;;;2.00;;
15486;SDS011;7845;53.698;10.078;2024-03-23T04:54:30;4.00;;;2.00;;
15486;SDS011;7845;53.698;10.078;2024-03-23T04:56:55;5.00;;;2.00;;
15486;SDS011;7845;53.698;10.078;2024-03-23T04:59:21;2.00;;;2.00;;
15486;SDS011;7845;53.698;10.078;2024-03-23T05:01:46;2.00;;;1.00;;
15486;SDS011;7845;53.698;10.078;2024-03-23T05:04:12;2.00;;;2.00;;
15486;SDS011;7845;53.698;10.078;2024-03-23T05:06:37;4.50;;;2.00;;
15486;SDS011;7845;53.698;10.078;2024-03-23T05:09:03;8.00;;;4.67;;
15486;SDS011;7845;53.698;10.078;2024-03-23T05:11:31;4.00;;;4.00;;
15486;SDS011;7845;53.698;10.078;2024-03-23T05:13:57;1.75;;;1.75;;
15486;SDS011;7845;53.698;10.078;2024-03-23T05:16:23;0.67;;;0.00;;
15486;SDS011;7845;53.698;10.078;2024-03-23T05:18:49;2.00;;;2.00;;
15486;SDS011;7845;53.698;10.078;2024-03-23T05:21:14;5.00;;;2.00;;
15486;SDS011;7845;53.698;10.078;2024-03-23T05:23:40;5.00;;;1.67;;
15486;SDS011;7845;53.698;10.078;2024-03-23T05:26:05;2.00;;;1.00;;
15486;SDS011;7845;53.698;10.078;2024-03-23T05:28:30;4.00;;;2.00;;
15486;SDS011;7845;53.698;10.078;2024-03-23T05:30:56;4.33;;;4.00;;
15486;SDS011;7845;53.698;10.078;2024-03-23T05:33:23;3.00;;;3.00;;
15486;SDS011;7845;53.698;10.078;2024-03-23T05:35:58;3.33;;;2.00;;
15486;SDS011;7845;53.698;10.078;2024-03-23T05:38:25;2.00;;;2.00;;
15486;SDS011;7845;53.698;10.078;2024-03-23T05:40:56;2.00;;;2.00;;
15486;SDS011;7845;53.698;10.078;2024-03-23T05:43:23;2.00;;;1.25;;
15486;SDS011;7845;53.698;10.078;2024-03-23T05:45:58;2.00;;;2.00;;
15486;SDS011;7845;53.698;10.078;2024-03-23T05:48:28;5.25;;;2.50;;
15486;SDS011;7845;53.698;10.078;2024-03-23T05:50:55;1.25;;;1.25;;
15486;SDS011;7845;53.698;10.078;2024-03-23T05:53:21;2.67;;;1.33;;
15486;SDS011;7845;53.698;10.078;2024-03-23T05:55:46;4.67;;;2.00;;
15486;SDS011;7845;53.698;10.078;2024-03-23T05:58:12;3.50;;;2.00;;
15486;SDS011;7845;53.698;10.078;2024-03-23T06:00:39;1.50;;;1.50;;
15486;SDS011;7845;53.698;10.078;2024-03-23T06:03:05;4.33;;;3.33;;
15486;SDS011;7845;53.698;10.078;2024-03-23T06:05:30;3.33;;;3.33;;
15486;SDS011;7845;53.698;10.078;2024-03-23T06:07:55;1.00;;;1.00;;
15486;SDS011;7845;53.698;10.078;2024-03-23T06:10:20;2.00;;;2.00;;
15486;SDS011;7845;53.698;10.078;2024-03-23T06:12:46;3.00;;;1.33;;
15486;SDS011;7845;53.698;10.078;2024-03-23T06:15:11;4.00;;;2.00;;
15486;SDS011;7845;53.698;10.078;2024-03-23T06:17:37;5.33;;;4.00;;
15486;SDS011;7845;53.698;10.078;2024-03-23T06:20:03;8.00;;;4.00;;
15486;SDS011;7845;53.698;10.078;2024-03-23T06:22:29;1.75;;;1.75;;
15486;SDS011;7845;53.698;10.078;2024-03-23T06:24:54;2.00;;;2.00;;
15486;SDS011;7845;53.698;10.078;2024-03-23T06:27:20;1.00;;;0.00;;
15486;SDS011;7845;53.698;10.078;2024-03-23T06:29:45;2.67;;;2.00;;
15486;SDS011;7845;53.698;10.078;2024-03-23T06:32:10;4.00;;;4.00;;
15486;SDS011;7845;53.698;10.078;2024-03-23T06:34:35;4.00;;;2.00;;
15486;SDS011;7845;53.698;10.078;2024-03-23T06:37:01;2.67;;;2.00;;
15486;SDS011;7845;53.698;10.078;2024-03-23T06:39:27;4.00;;;4.00;;
15486;SDS011;7845;53.698;10.078;2024-03-23T06:41:53;4.00;;;3.33;;
15486;SDS011;7845;53.698;10.078;2024-03-23T06:44:19;6.25;;;5.25;;
15486;SDS011;7845;53.698;10.078;2024-03-23T06:46:45;4.00;;;4.00;;
15486;SDS011;7845;53.698;10.078;2024-03-23T06:49:10;5.00;;;4.00;;
15486;SDS011;7845;53.698;10.078;2024-03-23T06:51:36;4.33;;;3.33;;
15486;SDS011;7845;53.698;10.078;2024-03-23T06:54:03;8.25;;;6.75;;
15486;SDS011;7845;53.698;10.078;2024-03-23T06:56:28;5.75;;;5.75;;
15486;SDS011;7845;53.698;10.078;2024-03-23T06:58:54;12.00;;;9.33;;
15486;SDS011;7845;53.698;10.078;2024-03-23T07:01:19;4.00;;;3.33;;
15486;SDS011;7845;53.698;10.078;2024-03-23T07:03:44;4.00;;;2.00;;
15486;SDS011;7845;53.698;10.078;2024-03-23T07:06:10;2.00;;;2.00;;
15486;SDS011;7845;53.698;10.078;2024-03-23T07:08:35;3.33;;;2.00;;
15486;SDS011;7845;53.698;10.078;2024-03-23T07:11:00;4.00;;;4.00;;
15486;SDS011;7845;53.698;10.078;2024-03-23T07:13:26;2.00;;;1.00;;
15486;SDS011;7845;53.698;10.078;2024-03-23T07:15:51;9.00;;;8.00;;
15486;SDS011;7845;53.698;10.078;2024-03-23T07:18:18;4.00;;;2.50;;
15486;SDS011;7845;53.698;10.078;2024-03-23T07:20:51;2.67;;;2.00;;
15486;SDS011;7845;53.698;10.078;2024-03-23T07:23:19;2.00;;;2.00;;
15486;SDS011;7845;53.698;10.078;2024-03-23T07:25:44;12.33;;;8.00;;
15486;SDS011;7845;53.698;10.078;2024-03-23T07:28:10;4.00;;;1.67;;
15486;SDS011;7845;53.698;10.078;2024-03-23T07:30:35;2.00;;;2.00;;
15486;SDS011;7845;53.698;10.078;2024-03-23T07:33:00;2.00;;;2.00;;
15486;SDS011;7845;53.698;10.078;2024-03-23T07:35:26;2.00;;;2.00;;
15486;SDS011;7845;53.698;10.078;2024-03-23T07:37:51;2.00;;;2.00;;
15486;SDS011;7845;53.698;10.078;2024-03-23T07:40:16;4.00;;;2.00;;
15486;SDS011;7845;53.698;10.078;2024-03-23T07:42:41;3.33;;;3.33;;
15486;SDS011;7845;53.698;10.078;2024-03-23T07:45:07;2.00;;;0.00;;
15486;SDS011;7845;53.698;10.078;2024-03-23T07:47:34;5.50;;;4.00;;
15486;SDS011;7845;53.698;10.078;2024-03-23T07:49:59;7.33;;;4.67;;
15486;SDS011;7845;53.698;10.078;2024-03-23T07:52:27;5.00;;;4.00;;
15486;SDS011;7845;53.698;10.078;2024-03-23T07:54:53;1.25;;;1.25;;
15486;SDS011;7845;53.698;10.078;2024-03-23T07:57:18;6.00;;;4.00;;
15486;SDS011;7845;53.698;10.078;2024-03-23T07:59:44;2.67;;;2.00;;
15486;SDS011;7845;53.698;10.078;2024-03-23T08:02:10;4.25;;;4.00;;
15486;SDS011;7845;53.698;10.078;2024-03-23T08:04:36;5.33;;;4.00;;
15486;SDS011;7845;53.698;10.078;2024-03-23T08:07:02;4.33;;;3.33;;
15486;SDS011;7845;53.698;10.078;2024-03-23T08:09:28;2.00;;;2.00;;
15486;SDS011;7845;53.698;10.078;2024-03-23T08:11:53;7.33;;;3.33;;
15486;SDS011;7845;53.698;10.078;2024-03-23T08:14:19;5.67;;;4.33;;
15486;SDS011;7845;53.698;10.078;2024-03-23T08:16:44;4.67;;;4.00;;
15486;SDS011;7845;53.698;10.078;2024-03-23T08:19:13;4.00;;;3.00;;
15486;SDS011;7845;53.698;10.078;2024-03-23T08:21:39;4.67;;;4.00;;
15486;SDS011;7845;53.698;10.078;2024-03-23T08:24:05;4.00;;;2.00;;
15486;SDS011;7845;53.698;10.078;2024-03-23T08:26:30;3.33;;;2.00;;
15486;SDS011;7845;53.698;10.078;2024-03-23T08:28:55;2.67;;;2.67;;
15486;SDS011;7845;53.698;10.078;2024-03-23T08:31:21;2.67;;;2.67;;
15486;SDS011;7845;53.698;10.078;2024-03-23T08:33:46;4.00;;;4.00;;
15486;SDS011;7845;53.698;10.078;2024-03-23T08:36:12;4.25;;;2.00;;
15486;SDS011;7845;53.698;10.078;2024-03-23T08:38:39;2.00;;;2.00;;
15486;SDS011;7845;53.698;10.078;2024-03-23T08:41:08;4.67;;;4.00;;
15486;SDS011;7845;53.698;10.078;2024-03-23T08:43:37;3.50;;;2.00;;
15486;SDS011;7845;53.698;10.078;2024-03-23T08:46:14;4.00;;;2.00;;
15486;SDS011;7845;53.698;10.078;2024-03-23T08:48:41;4.00;;;4.00;;
15486;SDS011;7845;53.698;10.078;2024-03-23T08:51:11;6.50;;;2.75;;
15486;SDS011;7845;53.698;10.078;2024-03-23T08:53:38;4.00;;;1.50;;
15486;SDS011;7845;53.698;10.078;2024-03-23T08:56:04;2.00;;;2.00;;
15486;SDS011;7845;53.698;10.078;2024-03-23T08:58:31;3.00;;;1.00;;
15486;SDS011;7845;53.698;10.078;2024-03-23T09:01:02;5.00;;;4.25;;
15486;SDS011;7845;53.698;10.078;2024-03-23T09:03:29;2.00;;;2.00;;
15486;SDS011;7845;53.698;10.078;2024-03-23T09:05:54;2.00;;;1.67;;
15486;SDS011;7845;53.698;10.078;2024-03-23T09:08:20;2.67;;;2.00;;
15486;SDS011;7845;53.698;10.078;2024-03-23T09:10:48;1.00;;;1.00;;
15486;SDS011;7845;53.698;10.078;2024-03-23T09:13:13;2.00;;;1.00;;
15486;SDS011;7845;53.698;10.078;2024-03-23T09:15:46;2.00;;;1.00;;
15486;SDS011;7845;53.698;10.078;2024-03-23T09:18:13;3.75;;;2.75;;
15486;SDS011;7845;53.698;10.078;2024-03-23T09:20:38;1.00;;;1.00;;
15486;SDS011;7845;53.698;10.078;2024-03-23T09:23:04;1.00;;;1.00;;
15486;SDS011;7845;53.698;10.078;2024-03-23T09:25:29;1.00;;;1.00;;
15486;SDS011;7845;53.698;10.078;2024-03-23T09:27:54;2.00;;;1.33;;
15486;SDS011;7845;53.698;10.078;2024-03-23T09:30:19;1.67;;;1.00;;
15486;SDS011;7845;53.698;10.078;2024-03-23T09:32:46;4.00;;;2.00;;
15486;SDS011;7845;53.698;10.078;2024-03-23T09:35:11;2.50;;;2.50;;
15486;SDS011;7845;53.698;10.078;2024-03-23T09:37:40;3.67;;;3.67;;
15486;SDS011;7845;53.698;10.078;2024-03-23T09:40:14;3.50;;;2.00;;
15486;SDS011;7845;53.698;10.078;2024-03-23T09:42:40;2.25;;;2.00;;
15486;SDS011;7845;53.698;10.078;2024-03-23T09:45:14;2.00;;;1.00;;
15486;SDS011;7845;53.698;10.078;2024-03-23T09:47:44;3.50;;;3.50;;
15486;SDS011;7845;53.698;10.078;2024-03-23T09:50:12;3.25;;;2.00;;
15486;SDS011;7845;53.698;10.078;2024-03-23T09:52:39;3.00;;;2.00;;
15486;SDS011;7845;53.698;10.078;2024-03-23T09:55:06;4.00;;;2.25;;
15486;SDS011;7845;53.698;10.078;2024-03-23T09:57:34;2.50;;;2.25;;
15486;SDS011;7845;53.698;10.078;2024-03-23T10:00:00;1.75;;;1.25;;
15486;SDS011;7845;53.698;10.078;2024-03-23T10:02:26;1.75;;;1.75;;
15486;SDS011;7845;53.698;10.078;2024-03-23T10:04:53;2.25;;;1.00;;
15486;SDS011;7845;53.698;10.078;2024-03-23T10:07:19;2.00;;;2.00;;
15486;SDS011;7845;53.698;10.078;2024-03-23T10:09:45;2.00;;;2.00;;
15486;SDS011;7845;53.698;10.078;2024-03-23T10:12:12;1.00;;;1.00;;
15486;SDS011;7845;53.698;10.078;2024-03-23T10:14:39;1.25;;;1.25;;
15486;SDS011;7845;53.698;10.078;2024-03-23T10:17:11;0.00;;;0.00;;
15486;SDS011;7845;53.698;10.078;2024-03-23T10:19:40;2.00;;;2.00;;
15486;SDS011;7845;53.698;10.078;2024-03-23T10:22:07;3.00;;;2.00;;
15486;SDS011;7845;53.698;10.078;2024-03-23T10:24:33;2.75;;;2.50;;
15486;SDS011;7845;53.698;10.078;2024-03-23T10:26:58;1.33;;;1.00;;
15486;SDS011;7845;53.698;10.078;2024-03-23T10:29:23;1.00;;;1.00;;
15486;SDS011;7845;53.698;10.078;2024-03-23T10:31:51;0.75;;;0.75;;
15486;SDS011;7845;53.698;10.078;2024-03-23T10:34:16;1.00;;;1.00;;
15486;SDS011;7845;53.698;10.078;2024-03-23T10:36:41;1.00;;;1.00;;
15486;SDS011;7845;53.698;10.078;2024-03-23T10:39:08;1.50;;;1.00;;
15486;SDS011;7845;53.698;10.078;2024-03-23T10:41:35;1.00;;;1.00;;
15486;SDS011;7845;53.698;10.078;2024-03-23T10:44:01;1.00;;;1.00;;
15486;SDS011;7845;53.698;10.078;2024-03-23T10:46:27;1.33;;;1.00;;
15486;SDS011;7845;53.698;10.078;2024-03-23T10:48:52;1.33;;;1.00;;
15486;SDS011;7845;53.698;10.078;2024-03-23T10:51:18;2.00;;;1.00;;
15486;SDS011;7845;53.698;10.078;2024-03-23T10:53:43;0.00;;;0.00;;
15486;SDS011;7845;53.698;10.078;2024-03-23T10:56:11;1.00;;;1.00;;
15486;SDS011;7845;53.698;10.078;2024-03-23T10:58:41;0.00;;;0.00;;
15486;SDS011;7845;53.698;10.078;2024-03-23T11:01:11;1.00;;;0.25;;
15486;SDS011;7845;53.698;10.078;2024-03-23T11:03:38;0.00;;;0.00;;
15486;SDS011;7845;53.698;10.078;2024-03-23T11:06:06;0.25;;;0.00;;
15486;SDS011;7845;53.698;10.078;2024-03-23T11:13:44;0.00;;;0.00;;
15486;SDS011;7845;53.698;10.078;2024-03-23T11:16:25;0.00;;;0.00;;
15486;SDS011;7845;53.698;10.078;2024-03-23T11:21:59;2.25;;;0.50;;
15486;SDS011;7845;53.698;10.078;2024-03-23T11:24:24;0.00;;;0.00;;
15486;SDS011;7845;53.698;10.078;2024-03-23T11:26:50;1.33;;;0.00;;
15486;SDS011;7845;53.698;10.078;2024-03-23T11:29:16;0.00;;;0.00;;
15486;SDS011;7845;53.698;10.078;2024-03-23T11:31:49;0.00;;;0.00;;
15486;SDS011;7845;53.698;10.078;2024-03-23T11:34:16;0.00;;;0.00;;
15486;SDS011;7845;53.698;10.078;2024-03-23T11:36:42;2.00;;;1.00;;
15486;SDS011;7845;53.698;10.078;2024-03-23T11:39:14;0.00;;;0.00;;
15486;SDS011;7845;53.698;10.078;2024-03-23T11:41:51;0.00;;;0.00;;
15486;SDS011;7845;53.698;10.078;2024-03-23T11:44:21;0.00;;;0.00;;
15486;SDS011;7845;53.698;10.078;2024-03-23T11:46:49;0.00;;;0.00;;
15486;SDS011;7845;53.698;10.078;2024-03-23T11:49:28;0.00;;;0.00;;
15486;SDS011;7845;53.698;10.078;2024-03-23T11:51:54;0.25;;;0.00;;
15486;SDS011;7845;53.698;10.078;2024-03-23T11:54:24;0.00;;;0.00;;
15486;SDS011;7845;53.698;10.078;2024-03-23T11:56:54;0.50;;;0.00;;
15486;SDS011;7845;53.698;10.078;2024-03-23T11:59:33;0.00;;;0.00;;
15486;SDS011;7845;53.698;10.078;2024-03-23T12:01:59;0.25;;;0.00;;
15486;SDS011;7845;53.698;10.078;2024-03-23T12:04:27;0.00;;;0.00;;
15486;SDS011;7845;53.698;10.078;2024-03-23T12:09:46;0.00;;;0.00;;
15486;SDS011;7845;53.698;10.078;2024-03-23T12:12:16;0.25;;;0.00;;
15486;SDS011;7845;53.698;10.078;2024-03-23T12:14:43;0.00;;;0.00;;
15486;SDS011;7845;53.698;10.078;2024-03-23T12:17:09;0.00;;;0.00;;
15486;SDS011;7845;53.698;10.078;2024-03-23T12:19:35;0.00;;;0.00;;
15486;SDS011;7845;53.698;10.078;2024-03-23T12:22:02;0.00;;;0.00;;
15486;SDS011;7845;53.698;10.078;2024-03-23T12:24:28;0.00;;;0.00;;
15486;SDS011;7845;53.698;10.078;2024-03-23T12:26:54;0.00;;;0.00;;
15486;SDS011;7845;53.698;10.078;2024-03-23T12:29:20;0.00;;;0.00;;
15486;SDS011;7845;53.698;10.078;2024-03-23T12:31:45;0.00;;;0.00;;
15486;SDS011;7845;53.698;10.078;2024-03-23T12:34:10;0.00;;;0.00;;
15486;SDS011;7845;53.698;10.078;2024-03-23T12:36:36;0.00;;;0.00;;
15486;SDS011;7845;53.698;10.078;2024-03-23T12:39:01;0.00;;;0.00;;
15486;SDS011;7845;53.698;10.078;2024-03-23T12:41:26;0.00;;;0.00;;
15486;SDS011;7845;53.698;10.078;2024-03-23T12:43:51;0.00;;;0.00;;
15486;SDS011;7845;53.698;10.078;2024-03-23T12:46:17;0.00;;;0.00;;
15486;SDS011;7845;53.698;10.078;2024-03-23T12:48:44;0.00;;;0.00;;
15486;SDS011;7845;53.698;10.078;2024-03-23T12:51:09;0.00;;;0.00;;
15486;SDS011;7845;53.698;10.078;2024-03-23T12:53:35;0.00;;;0.00;;
15486;SDS011;7845;53.698;10.078;2024-03-23T12:56:00;0.00;;;0.00;;
15486;SDS011;7845;53.698;10.078;2024-03-23T12:58:25;0.00;;;0.00;;
15486;SDS011;7845;53.698;10.078;2024-03-23T13:00:51;0.00;;;0.00;;
15486;SDS011;7845;53.698;10.078;2024-03-23T13:03:16;0.00;;;0.00;;
15486;SDS011;7845;53.698;10.078;2024-03-23T13:05:42;0.00;;;0.00;;
15486;SDS011;7845;53.698;10.078;2024-03-23T13:08:07;0.00;;;0.00;;
15486;SDS011;7845;53.698;10.078;2024-03-23T13:10:32;0.00;;;0.00;;
15486;SDS011;7845;53.698;10.078;2024-03-23T13:12:58;0.00;;;0.00;;
15486;SDS011;7845;53.698;10.078;2024-03-23T13:15:23;0.00;;;0.00;;
15486;SDS011;7845;53.698;10.078;2024-03-23T13:17:48;0.00;;;0.00;;
15486;SDS011;7845;53.698;10.078;2024-03-23T13:20:13;0.00;;;0.00;;
15486;SDS011;7845;53.698;10.078;2024-03-23T13:22:40;0.00;;;0.00;;
15486;SDS011;7845;53.698;10.078;2024-03-23T13:25:05;0.00;;;0.00;;
15486;SDS011;7845;53.698;10.078;2024-03-23T13:27:31;0.00;;;0.00;;
15486;SDS011;7845;53.698;10.078;2024-03-23T13:29:56;0.00;;;0.00;;
15486;SDS011;7845;53.698;10.078;2024-03-23T13:32:21;0.00;;;0.00;;
15486;SDS011;7845;53.698;10.078;2024-03-23T13:34:47;0.00;;;0.00;;
15486;SDS011;7845;53.698;10.078;2024-03-23T13:37:15;0.00;;;0.00;;
15486;SDS011;7845;53.698;10.078;2024-03-23T13:39:40;0.00;;;0.00;;
15486;SDS011;7845;53.698;10.078;2024-03-23T13:42:07;0.00;;;0.00;;
15486;SDS011;7845;53.698;10.078;2024-03-23T13:44:34;0.00;;;0.00;;
15486;SDS011;7845;53.698;10.078;2024-03-23T13:46:59;0.00;;;0.00;;
15486;SDS011;7845;53.698;10.078;2024-03-23T13:49:28;0.00;;;0.00;;
15486;SDS011;7845;53.698;10.078;2024-03-23T13:51:55;0.00;;;0.00;;
15486;SDS011;7845;53.698;10.078;2024-03-23T13:54:23;0.00;;;0.00;;
15486;SDS011;7845;53.698;10.078;2024-03-23T13:56:49;0.00;;;0.00;;
15486;SDS011;7845;53.698;10.078;2024-03-23T13:59:15;0.00;;;0.00;;
15486;SDS011;7845;53.698;10.078;2024-03-23T14:01:40;0.00;;;0.00;;
15486;SDS011;7845;53.698;10.078;2024-03-23T14:04:05;0.00;;;0.00;;
15486;SDS011;7845;53.698;10.078;2024-03-23T14:06:31;0.00;;;0.00;;
15486;SDS011;7845;53.698;10.078;2024-03-23T14:08:56;0.00;;;0.00;;
15486;SDS011;7845;53.698;10.078;2024-03-23T14:11:22;0.00;;;0.00;;
15486;SDS011;7845;53.698;10.078;2024-03-23T14:13:47;0.00;;;0.00;;
15486;SDS011;7845;53.698;10.078;2024-03-23T14:16:12;0.00;;;0.00;;
15486;SDS011;7845;53.698;10.078;2024-03-23T14:18:37;0.00;;;0.00;;
15486;SDS011;7845;53.698;10.078;2024-03-23T14:21:03;0.00;;;0.00;;
15486;SDS011;7845;53.698;10.078;2024-03-23T14:23:29;1.00;;;0.00;;
15486;SDS011;7845;53.698;10.078;2024-03-23T14:25:58;0.50;;;0.00;;
15486;SDS011;7845;53.698;10.078;2024-03-23T14:28:23;0.00;;;0.00;;
15486;SDS011;7845;53.698;10.078;2024-03-23T14:30:49;0.00;;;0.00;;
15486;SDS011;7845;53.698;10.078;2024-03-23T14:33:20;0.75;;;0.75;;
15486;SDS011;7845;53.698;10.078;2024-03-23T14:35:53;0.00;;;0.00;;
15486;SDS011;7845;53.698;10.078;2024-03-23T14:38:19;1.00;;;0.00;;
15486;SDS011;7845;53.698;10.078;2024-03-23T14:40:45;0.00;;;0.00;;
15486;SDS011;7845;53.698;10.078;2024-03-23T14:43:11;0.00;;;0.00;;
15486;SDS011;7845;53.698;10.078;2024-03-23T14:45:36;0.00;;;0.00;;
15486;SDS011;7845;53.698;10.078;2024-03-23T14:48:02;0.00;;;0.00;;
15486;SDS011;7845;53.698;10.078;2024-03-23T14:50:27;1.00;;;1.00;;
15486;SDS011;7845;53.698;10.078;2024-03-23T14:52:52;0.67;;;0.67;;
15486;SDS011;7845;53.698;10.078;2024-03-23T14:55:18;2.00;;;1.00;;
15486;SDS011;7845;53.698;10.078;2024-03-23T14:57:44;2.00;;;1.00;;
15486;SDS011;7845;53.698;10.078;2024-03-23T15:00:09;0.00;;;0.00;;
15486;SDS011;7845;53.698;10.078;2024-03-23T15:02:37;0.00;;;0.00;;
15486;SDS011;7845;53.698;10.078;2024-03-23T15:05:02;1.00;;;1.00;;
15486;SDS011;7845;53.698;10.078;2024-03-23T15:07:29;2.00;;;0.00;;
15486;SDS011;7845;53.698;10.078;2024-03-23T15:09:55;0.25;;;0.25;;
15486;SDS011;7845;53.698;10.078;2024-03-23T15:12:20;0.00;;;0.00;;
15486;SDS011;7845;53.698;10.078;2024-03-23T15:14:46;1.67;;;0.33;;
15486;SDS011;7845;53.698;10.078;2024-03-23T15:17:12;0.00;;;0.00;;
15486;SDS011;7845;53.698;10.078;2024-03-23T15:19:37;0.00;;;0.00;;
15486;SDS011;7845;53.698;10.078;2024-03-23T15:22:02;0.00;;;0.00;;
15486;SDS011;7845;53.698;10.078;2024-03-23T15:24:28;0.00;;;0.00;;
15486;SDS011;7845;53.698;10.078;2024-03-23T15:26:54;0.33;;;0.00;;
15486;SDS011;7845;53.698;10.078;2024-03-23T15:29:20;0.00;;;0.00;;
15486;SDS011;7845;53.698;10.078;2024-03-23T15:31:47;0.00;;;0.00;;
15486;SDS011;7845;53.698;10.078;2024-03-23T15:34:15;0.00;;;0.00;;
15486;SDS011;7845;53.698;10.078;2024-03-23T15:36:40;0.00;;;0.00;;
15486;SDS011;7845;53.698;10.078;2024-03-23T15:39:05;0.00;;;0.00;;
15486;SDS011;7845;53.698;10.078;2024-03-23T15:41:34;0.00;;;0.00;;
15486;SDS011;7845;53.698;10.078;2024-03-23T15:44:00;0.00;;;0.00;;
15486;SDS011;7845;53.698;10.078;2024-03-23T15:46:26;0.00;;;0.00;;
15486;SDS011;7845;53.698;10.078;2024-03-23T15:48:51;0.00;;;0.00;;